Language selection

My Weather Profile Weather Topics  | 

West Coast Vancouver Island North: Past 24 Hour Conditions

 

South Nomad - 46036

03:00 PM PDT 19 October 2021Buoy position: 48.35N 133.95W
Disclaimer

This table is a summary of hourly weather conditions for the past 24 hours.
Please note that these observations might not always be representative of weather conditions over their associated marine area.

Date / Time
(PDT)
Wind(knots) Wave height(m) Wave period(s) Pressure(kPa) Air tempC) Water tempC)
19 October 2021
15:00 N 8 N/A N/A N/A N/A N/A
14:00 N 6 gust 10 5.4 12.0 98.5 12 13
13:00 N 6 gust 10 6.0 11.0 98.6 12 13
12:00 SSE 2 gust 6 5.1 11.0 98.6 12 13
11:00 SE 6 gust 10 5.2 11.0 98.7 12 13
10:00 ENE 6 gust 12 5.9 12.0 98.7 12 13
9:00 ENE 8 gust 13 6.6 10.0 98.7 12 13
8:00 E 12 5.9 12.0 98.8 12 13
7:00 SE 6 gust 12 6.0 11.0 98.9 12 13
6:00 ESE 10 gust 13 6.1 12.0 99.0 12 13
5:00 SSE 10 gust 13 5.6 12.0 99.0 13 13
4:00 SSE 12 gust 16 5.8 11.0 99.0 13 13
3:00 SSE 10 gust 13 5.7 11.0 99.1 13 13
2:00 S 13 gust 17 5.8 11.0 99.1 13 13
1:00 S 19 gust 25 6.0 11.0 99.2 13 13
0:00 S 6 gust 8 6.4 11.0 99.2 11 13
18 October 2021
23:00 S 17 gust 27 5.9 11.0 99.2 12 13
22:00 S 25 gust 33 7.0 11.0 99.1 13 13
21:00 SSE 33 gust 45 7.5 11.0 99.1 13 13
20:00 N/A N/A N/A N/A N/A N/A
19:00 SSE 35 gust 43 6.7 10.0 99.2 13 13
18:00 SSE 33 gust 43 6.1 10.0 99.3 13 13
17:00 SSE 33 gust 43 6.0 10.0 99.3 13 13
16:00 SSE 33 gust 41 5.7 10.0 N/A N/A 13
15:00 SSE 35 gust 43 5.9 9.0 99.5 14 13

Zoom-in to make a selection

Map of Pacific - North Coast marine weather areas Middle Nomad - 46004 South Nomad - 46036 Dixon Entrance Central - 46145 South Moresby - 46147 Nanakwa Shoal - 46181 North Hecate Strait - 46183 North Nomad - 46184 South Hecate Strait - 46185 West Sea Otter - 46204 West Dixon Entrance - 46205 East Dellwood - 46207 West Moresby - 46208 Sartine Island Cape St.James Kindakun Rocks Langara Island Masset Municipal Airport Rose Spit Sandspit Airport Bella Bella Airport Bella Coola Airport Bonilla Island Cathedral Point Cumshewa Island Grey Islet Holland Rock Lucy Islands Lightstation Prince Rupert Airport
Legend:
buoy Buoy
land station Land Station

Pacific - North Coast Area

Another Region

What we are doing

Date modified: